地図

経路データ

SID SEASON NUMBER BASIN SUBBASIN NAME ISO_TIME NATURE LAT LON WMO_WIND WMO_PRES WMO_AGENCY TRACK_TYPE DIST2LAND LANDFALL IFLAG USA_AGENCY USA_ATCF_ID USA_LAT USA_LON USA_RECORD USA_STATUS USA_WIND USA_PRES USA_SSHS USA_R34_NE USA_R34_SE USA_R34_SW USA_R34_NW USA_R50_NE USA_R50_SE USA_R50_SW USA_R50_NW USA_R64_NE USA_R64_SE USA_R64_SW USA_R64_NW USA_POCI USA_ROCI USA_RMW USA_EYE TOKYO_LAT TOKYO_LON TOKYO_GRADE TOKYO_WIND TOKYO_PRES TOKYO_R50_DIR TOKYO_R50_LONG TOKYO_R50_SHORT TOKYO_R30_DIR TOKYO_R30_LONG TOKYO_R30_SHORT TOKYO_LAND CMA_LAT CMA_LON CMA_CAT CMA_WIND CMA_PRES HKO_LAT HKO_LON HKO_CAT HKO_WIND HKO_PRES NEWDELHI_LAT NEWDELHI_LON NEWDELHI_GRADE NEWDELHI_WIND NEWDELHI_PRES NEWDELHI_CI NEWDELHI_DP NEWDELHI_POCI REUNION_LAT REUNION_LON REUNION_TYPE REUNION_WIND REUNION_PRES REUNION_TNUM REUNION_CI REUNION_RMW REUNION_R34_NE REUNION_R34_SE REUNION_R34_SW REUNION_R34_NW REUNION_R50_NE REUNION_R50_SE REUNION_R50_SW REUNION_R50_NW REUNION_R64_NE REUNION_R64_SE REUNION_R64_SW REUNION_R64_NW BOM_LAT BOM_LON BOM_TYPE BOM_WIND BOM_PRES BOM_TNUM BOM_CI BOM_RMW BOM_R34_NE BOM_R34_SE BOM_R34_SW BOM_R34_NW BOM_R50_NE BOM_R50_SE BOM_R50_SW BOM_R50_NW BOM_R64_NE BOM_R64_SE BOM_R64_SW BOM_R64_NW BOM_ROCI BOM_POCI BOM_EYE BOM_POS_METHOD BOM_PRES_METHOD NADI_LAT NADI_LON NADI_CAT NADI_WIND NADI_PRES WELLINGTON_LAT WELLINGTON_LON WELLINGTON_WIND WELLINGTON_PRES DS824_LAT DS824_LON DS824_STAGE DS824_WIND DS824_PRES TD9636_LAT TD9636_LON TD9636_STAGE TD9636_WIND TD9636_PRES TD9635_LAT TD9635_LON TD9635_WIND TD9635_PRES TD9635_ROCI NEUMANN_LAT NEUMANN_LON NEUMANN_CLASS NEUMANN_WIND NEUMANN_PRES MLC_LAT MLC_LON MLC_CLASS MLC_WIND MLC_PRES USA_GUST BOM_GUST BOM_GUST_PER REUNION_GUST REUNION_GUST_PER USA_SEAHGT USA_SEARAD_NE USA_SEARAD_SE USA_SEARAD_SW USA_SEARAD_NW STORM_SPEED STORM_DIR
1996265N06154 1996 87 WP MM NOT_NAMED 1996-09-20 18:00:00 NR 5.70000 153.600 spur-merge 988 975 O_____________ jtwc_wp WP291996 5.70000 153.600 15 -1 9 270
1996265N06154 1996 87 WP MM NOT_NAMED 1996-09-20 21:00:00 NR 5.70004 153.170 spur-merge 975 962 P_____________ WP291996 5.70004 153.170 15 -1 9 270
1996265N06154 1996 87 WP MM NOT_NAMED 1996-09-21 00:00:00 NR 5.70000 152.700 spur-merge 962 952 O_____________ jtwc_wp WP291996 5.70000 152.700 15 -1 10 270
1996265N06154 1996 87 WP MM NOT_NAMED 1996-09-21 03:00:00 NR 5.69999 152.165 spur-merge 952 944 P_____________ WP291996 5.69999 152.165 15 -1 11 270
1996265N06154 1996 87 WP MM NOT_NAMED 1996-09-21 06:00:00 NR 5.70000 151.600 spur-merge 944 941 O_____________ jtwc_wp WP291996 5.70000 151.600 15 -1 11 270
1996265N06154 1996 87 WP MM NOT_NAMED 1996-09-21 09:00:00 NR 5.69988 151.072 spur-merge 941 939 P_____________ WP291996 5.69988 151.072 15 -1 11 270
1996265N06154 1996 87 WP MM NOT_NAMED 1996-09-21 12:00:00 NR 5.70000 150.500 spur-merge 939 917 O_____________ jtwc_wp WP291996 5.70000 150.500 15 -1 12 270
1996265N06154 1996 87 WP MM NOT_NAMED 1996-09-21 15:00:00 NR 5.69999 149.822 spur-merge 913 894 P_____________ WP291996 5.69999 149.822 15 -1 14 270
1996265N06154 1996 87 WP MM NOT_NAMED 1996-09-21 18:00:00 NR 5.70000 149.100 spur-merge 894 881 O_____________ jtwc_wp WP291996 5.70000 149.100 15 -1 14 270
1996265N06154 1996 87 WP MM NOT_NAMED 1996-09-21 21:00:00 NR 5.69242 148.400 spur-merge 881 874 P_____________ WP291996 5.69242 148.400 15 -1 14 270
1996265N06154 1996 87 WP MM NOT_NAMED 1996-09-22 00:00:00 NR 5.70000 147.700 spur-merge 874 874 O_____________ jtwc_wp WP291996 5.70000 147.700 15 -1 14 271
1996265N06154 1996 87 WP MM NOT_NAMED 1996-09-22 03:00:00 NR 5.70503 146.962 spur-merge 874 874 P_____________ WP291996 5.70503 146.962 15 -1 14 274
1996265N06154 1996 87 WP MM NOT_NAMED 1996-09-22 06:00:00 NR 5.80000 146.300 spur-merge 885 885 O_____________ jtwc_wp WP291996 5.80000 146.300 15 -1 12 286
1996265N06154 1996 87 WP MM NOT_NAMED 1996-09-22 09:00:00 NR 6.03242 145.783 spur-merge 912 912 P_____________ WP291996 6.03242 145.783 15 -1 11 304
1996265N06154 1996 87 WP MM NOT_NAMED 1996-09-22 12:00:00 NR 6.40000 145.400 spur-merge 961 961 O_____________ jtwc_wp WP291996 6.40000 145.400 15 -1 11 322
1996265N06154 1996 87 WP MM NOT_NAMED 1996-09-22 15:00:00 NR 6.86994 145.112 spur-merge 1022 1022 P_____________ WP291996 6.86994 145.112 15 -1 11 334
1996265N06154 1996 87 WP MM NOT_NAMED 1996-09-22 18:00:00 NR 7.40000 144.900 spur-merge 1081 1081 O_____________ jtwc_wp WP291996 7.40000 144.900 15 -1 11 339
1996265N06154 1996 87 WP MM NOT_NAMED 1996-09-22 21:00:00 NR 7.91495 144.707 spur-merge 1140 1140 P_____________ WP291996 7.91495 144.707 15 -1 11 338
1996265N06154 1996 87 WP MM NOT_NAMED 1996-09-23 00:00:00 NR 8.40000 144.500 spur-merge 1199 1199 O_____________ jtwc_wp WP291996 8.40000 144.500 15 -1 10 333
1996265N06154 1996 87 WP MM NOT_NAMED 1996-09-23 03:00:00 NR 8.80742 144.245 spur-merge 1250 1250 P_____________ WP291996 8.80742 144.245 17 -1 10 323
1996265N06154 1996 87 WP MM NOT_NAMED 1996-09-23 06:00:00 NR 9.20000 143.900 spur-merge 1301 1301 O_____________ jtwc_wp WP291996 9.20000 143.900 20 -1 11 316
1996265N06154 1996 87 WP MM NOT_NAMED 1996-09-23 09:00:00 NR 9.60486 143.467 spur-merge 1355 1355 P_____________ WP291996 9.60486 143.467 20 -1 13 312
1996265N06154 1996 87 WP MM NOT_NAMED 1996-09-23 12:00:00 NR 10.1000 142.900 spur-merge 1410 1410 O_____________ jtwc_wp WP291996 10.1000 142.900 20 -1 17 312
1996265N06154 1996 87 WP MM NOT_NAMED 1996-09-23 15:00:00 NR 10.7475 142.195 spur-merge 1447 1447 P_____________ WP291996 10.7475 142.195 22 -1 20 314
1996265N06154 1996 87 WP MM NOT_NAMED 1996-09-23 18:00:00 NR 11.5000 141.400 spur-merge 1506 1506 O_____________ jtwc_wp WP291996 11.5000 141.400 25 -1 22 315
1996265N06154 1996 87 WP MM NOT_NAMED 1996-09-23 21:00:00 NR 12.2848 140.615 spur-merge 1556 1541 P_____________ WP291996 12.2848 140.615 27 -1 22 316
1996265N06154 1996 87 WP MM NOT_NAMED 1996-09-24 00:00:00 NR 13.1000 139.800 spur-merge 1541 1470 O_____________ jtwc_wp WP291996 13.1000 139.800 30 -1 24 315
1996265N06154 1996 87 WP MM NOT_NAMED 1996-09-24 03:00:00 NR 13.9526 138.920 spur-merge 1461 1391 P_____________ WP291996 13.9056 138.959 30 -1 23 314
1996265N06154 1996 87 WP MM NOT_NAMED 1996-09-24 06:00:00 NR 14.7000 138.100 spur-merge 1391 O_____________ jtwc_wp WP291996 14.7000 138.100 30 -1 22 313

デジタル台風データ・検索

IBTrACS Databaseについて

本データベースは、米国NOAAが公開する1842年以降の世界の熱帯低気圧のベストトラックデータアーカイブInternational Best Track Archive for Climate Stewardship (IBTrACS)を、ウェブで閲覧しやすい形式に変換したものです。

最終更新日:2021-10-21